createdAt,value
2019-01-28T00:00:38.820Z,96454.16
2019-01-28T00:03:08.540Z,96455.00
2019-01-28T00:05:36.976Z,96459.94
2019-01-28T00:08:05.431Z,96462.27
2019-01-28T00:10:33.808Z,96455.66
2019-01-28T00:13:02.191Z,96456.80
2019-01-28T00:15:30.578Z,96456.31
2019-01-28T00:17:58.950Z,96457.64
2019-01-28T00:20:28.151Z,96454.69
2019-01-28T00:22:56.522Z,96451.20
2019-01-28T00:25:24.914Z,96457.16
2019-01-28T00:27:53.284Z,96458.47
2019-01-28T00:30:21.669Z,96448.39
2019-01-28T00:32:50.048Z,96449.40
2019-01-28T00:35:18.439Z,96452.70
2019-01-28T00:37:47.457Z,96456.17
2019-01-28T00:40:15.986Z,96451.91
2019-01-28T00:42:44.377Z,96449.26
2019-01-28T00:45:13.898Z,96451.55
2019-01-28T00:47:42.274Z,96450.23
2019-01-28T00:50:12.296Z,96448.91
2019-01-28T00:52:40.675Z,96452.21
2019-01-28T00:55:11.311Z,96450.09
2019-01-28T00:57:39.963Z,96443.98
2019-01-28T01:00:17.104Z,96443.31
2019-01-28T01:02:45.483Z,96444.33
2019-01-28T01:05:13.873Z,96446.97
2019-01-28T01:07:42.258Z,96444.81
2019-01-28T01:10:12.087Z,96448.11
2019-01-28T01:12:40.462Z,96447.27
2019-01-28T01:15:14.096Z,96444.32
2019-01-28T01:17:42.543Z,96438.38
2019-01-28T01:20:14.203Z,96440.53
2019-01-28T01:22:42.589Z,96447.13
2019-01-28T01:25:11.415Z,96447.30
2019-01-28T01:27:39.792Z,96445.98
2019-01-28T01:30:11.306Z,96446.95
2019-01-28T01:32:39.692Z,96450.12
2019-01-28T01:35:08.172Z,96449.77
2019-01-28T01:37:36.552Z,96448.13
2019-01-28T01:40:08.493Z,96446.50
2019-01-28T01:42:36.869Z,96443.86
2019-01-28T01:45:08.559Z,96432.64
2019-01-28T01:47:36.943Z,96444.17
2019-01-28T01:50:08.481Z,96440.21
2019-01-28T01:52:36.866Z,96433.61
2019-01-28T01:55:08.136Z,96434.30
2019-01-28T01:57:36.512Z,96431.66
2019-01-28T02:00:10.735Z,96442.22
2019-01-28T02:02:39.114Z,96424.39
2019-01-28T02:05:07.955Z,96428.84
2019-01-28T02:07:36.326Z,96430.34
2019-01-28T02:10:08.095Z,96431.83
2019-01-28T02:12:36.472Z,96428.84
2019-01-28T02:15:07.944Z,96413.83
2019-01-28T02:17:36.324Z,96416.33
2019-01-28T02:20:07.657Z,96417.97
2019-01-28T02:22:36.033Z,96410.22
2019-01-28T02:25:06.714Z,96406.75
2019-01-28T02:27:35.112Z,96407.75
2019-01-28T02:30:05.439Z,96416.64
2019-01-28T02:32:33.814Z,96414.17
2019-01-28T02:35:02.194Z,96401.98
2019-01-28T02:37:30.582Z,96401.98
2019-01-28T02:39:59.332Z,96395.37
2019-01-28T02:42:27.726Z,96392.39
2019-01-28T02:44:56.097Z,96394.72
2019-01-28T02:47:24.492Z,96390.45
2019-01-28T02:49:52.855Z,96393.74
2019-01-28T02:52:21.239Z,96375.44
2019-01-28T02:54:49.617Z,96377.56
2019-01-28T02:57:17.995Z,96377.73
2019-01-28T02:59:46.370Z,96373.28
2019-01-28T03:02:14.741Z,96368.67
2019-01-28T03:04:43.118Z,96368.32
2019-01-28T03:07:11.497Z,96361.38
2019-01-28T03:09:39.866Z,96360.89
2019-01-28T03:12:08.245Z,96357.94
2019-01-28T03:14:36.618Z,96356.27
2019-01-28T03:17:08.263Z,96353.31
2019-01-28T03:19:36.702Z,96349.84
2019-01-28T03:22:05.149Z,96338.31
2019-01-28T03:24:33.514Z,96336.98
2019-01-28T03:27:01.890Z,96337.16
2019-01-28T03:29:30.257Z,96336.81
2019-01-28T03:31:58.653Z,96330.73
2019-01-28T03:34:27.012Z,96326.44
2019-01-28T03:36:55.382Z,96326.61
2019-01-28T03:39:23.758Z,96323.83
2019-01-28T03:41:52.142Z,96323.31
2019-01-28T03:44:20.504Z,96321.67
2019-01-28T03:46:48.895Z,96312.13
2019-01-28T03:49:17.493Z,96316.73
2019-01-28T03:51:47.650Z,96315.59
2019-01-28T03:54:16.123Z,96314.59
2019-01-28T03:56:44.505Z,96313.92
2019-01-28T03:59:12.871Z,96314.77
2019-01-28T04:01:41.240Z,96317.88
2019-01-28T04:04:09.606Z,96311.95
2019-01-28T04:06:37.994Z,96314.93
2019-01-28T04:09:08.214Z,96313.78
2019-01-28T04:11:36.588Z,96314.09
2019-01-28T04:14:05.891Z,96312.29
2019-01-28T04:16:34.260Z,96305.87
2019-01-28T04:19:02.639Z,96302.74
2019-01-28T04:21:31.028Z,96303.05
2019-01-28T04:24:00.211Z,96301.59
2019-01-28T04:26:28.586Z,96296.80
2019-01-28T04:28:56.985Z,96297.30
2019-01-28T04:31:25.340Z,96295.17
2019-01-28T04:33:53.709Z,96297.30
2019-01-28T04:36:22.084Z,96290.89
2019-01-28T04:38:50.456Z,96296.82
2019-01-28T04:41:18.842Z,96296.36
2019-01-28T04:43:47.218Z,96296.02
2019-01-28T04:46:15.593Z,96288.76
2019-01-28T04:48:43.976Z,96290.91
2019-01-28T04:51:12.328Z,96297.50
2019-01-28T04:53:40.701Z,96302.77
2019-01-28T04:56:09.077Z,96293.88
2019-01-28T04:58:37.450Z,96287.29
2019-01-28T05:01:05.825Z,96284.82
2019-01-28T05:03:34.218Z,96286.63
2019-01-28T05:06:02.595Z,96286.63
2019-01-28T05:08:30.953Z,96276.59
2019-01-28T05:10:59.319Z,96277.57
2019-01-28T05:13:27.704Z,96279.41
2019-01-28T05:15:56.082Z,96281.69
2019-01-28T05:18:24.469Z,96280.38
2019-01-28T05:20:52.830Z,96278.22
2019-01-28T05:23:21.240Z,96275.27
2019-01-28T05:25:49.583Z,96267.05
2019-01-28T05:28:17.968Z,96268.53
2019-01-28T05:30:46.337Z,96266.39
2019-01-28T05:33:14.732Z,96263.41
2019-01-28T05:35:43.079Z,96269.19
2019-01-28T05:38:11.453Z,96265.72
2019-01-28T05:40:39.822Z,96258.64
2019-01-28T05:43:08.218Z,96258.16
2019-01-28T05:45:36.585Z,96258.16
2019-01-28T05:48:04.969Z,96258.98
2019-01-28T05:50:33.340Z,96257.32
2019-01-28T05:53:01.727Z,96261.27
2019-01-28T05:55:30.996Z,96254.86
2019-01-28T06:00:27.132Z,96263.73
2019-01-28T06:02:55.589Z,96259.95
2019-01-28T06:05:23.967Z,96259.63
2019-01-28T06:07:52.357Z,96267.55
2019-01-28T06:10:20.789Z,96271.98
2019-01-28T06:12:49.162Z,96265.08
2019-01-28T06:15:19.172Z,96269.86
2019-01-28T06:17:47.782Z,96280.05
2019-01-28T06:20:18.599Z,96270.52
2019-01-28T06:22:47.426Z,96274.92
2019-01-28T06:25:16.137Z,96283.31
2019-01-28T06:27:44.519Z,96274.61
2019-01-28T06:30:26.743Z,96281.68
2019-01-28T06:32:55.199Z,96283.16
2019-01-28T06:35:23.634Z,96293.70
2019-01-28T06:37:52.354Z,96283.33
2019-01-28T06:40:23.638Z,96283.33
2019-01-28T06:42:52.018Z,96290.75
2019-01-28T06:45:20.384Z,96286.94
2019-01-28T06:47:48.769Z,96286.63
2019-01-28T06:50:19.575Z,96289.42
2019-01-28T06:52:47.961Z,96282.00
2019-01-28T06:55:16.601Z,96279.05
2019-01-28T06:57:44.985Z,96295.34
2019-01-28T07:00:24.954Z,96294.86
2019-01-28T07:02:53.882Z,96279.70
2019-01-28T07:05:22.328Z,96296.35
2019-01-28T07:07:50.716Z,96291.73
2019-01-28T07:10:19.150Z,96292.22
2019-01-28T07:12:47.526Z,96294.02
2019-01-28T07:15:21.488Z,96301.12
2019-01-28T07:17:54.667Z,96299.14
2019-01-28T07:20:26.656Z,96308.84
2019-01-28T07:22:55.314Z,96302.42
2019-01-28T07:25:23.685Z,96308.70
2019-01-28T07:27:52.090Z,96311.81
2019-01-28T07:30:32.965Z,96313.30
2019-01-28T07:33:01.788Z,96320.54
2019-01-28T07:35:35.462Z,96324.66
2019-01-28T07:38:04.579Z,96325.97
2019-01-28T07:40:33.027Z,96335.01
2019-01-28T07:43:01.899Z,96332.89
2019-01-28T07:45:34.820Z,96337.33
2019-01-28T07:48:03.446Z,96339.64
2019-01-28T07:50:32.126Z,96339.81
2019-01-28T07:53:00.474Z,96344.73
2019-01-28T07:55:28.855Z,96348.36
2019-01-28T07:57:58.212Z,96349.67
2019-01-28T08:00:31.841Z,96348.01
2019-01-28T08:03:00.220Z,96348.17
2019-01-28T08:05:28.687Z,96347.02
2019-01-28T08:07:57.124Z,96346.19
2019-01-28T08:10:25.647Z,96347.67
2019-01-28T08:12:54.562Z,96353.10
2019-01-28T08:15:25.176Z,96353.59
2019-01-28T08:17:53.542Z,96354.58
2019-01-28T08:20:22.457Z,96360.84
2019-01-28T08:22:50.838Z,96358.70
2019-01-28T08:25:20.750Z,96356.23
2019-01-28T08:27:49.891Z,96350.96
2019-01-28T08:30:31.229Z,96361.02
2019-01-28T08:32:59.963Z,96355.88
2019-01-28T08:35:30.088Z,96360.83
2019-01-28T08:37:58.627Z,96367.25
2019-01-28T08:40:27.254Z,96369.38
2019-01-28T08:42:56.526Z,96373.00
2019-01-28T08:45:24.973Z,96378.76
2019-01-28T08:47:53.336Z,96381.88
2019-01-28T08:50:26.676Z,96381.07
2019-01-28T08:52:55.049Z,96372.02
2019-01-28T08:55:25.663Z,96386.66
2019-01-28T08:57:56.149Z,96380.20
2019-01-28T09:00:33.483Z,96385.00
2019-01-28T09:03:04.056Z,96383.67
2019-01-28T09:05:32.889Z,96398.80
2019-01-28T09:08:01.334Z,96392.22
2019-01-28T09:10:31.152Z,96399.80
2019-01-28T09:12:59.529Z,96394.38
2019-01-28T09:15:28.080Z,96405.23
2019-01-28T09:17:56.686Z,96403.40
2019-01-28T09:20:29.879Z,96403.91
2019-01-28T09:22:58.243Z,96412.78
2019-01-28T09:25:26.441Z,96416.56
2019-01-28T09:27:55.752Z,96421.52
2019-01-28T09:30:26.462Z,96421.19
2019-01-28T09:32:54.841Z,96427.77
2019-01-28T09:35:23.354Z,96423.47
2019-01-28T09:37:51.729Z,96434.52
2019-01-28T09:40:23.358Z,96444.70
2019-01-28T09:42:51.799Z,96455.23
2019-01-28T09:45:22.870Z,96454.08
2019-01-28T09:47:51.253Z,96461.49
2019-01-28T09:50:20.184Z,96469.55
2019-01-28T09:52:50.091Z,96475.46
2019-01-28T09:55:18.804Z,96482.05
2019-01-28T09:57:47.182Z,96478.77
2019-01-28T10:00:20.197Z,96486.98
2019-01-28T10:02:48.576Z,96501.15
2019-01-28T10:05:17.487Z,96501.15
2019-01-28T10:07:45.928Z,96508.69
2019-01-28T10:10:19.985Z,96512.64
2019-01-28T10:12:48.362Z,96515.27
2019-01-28T10:15:28.606Z,96521.53
2019-01-28T10:17:56.393Z,96528.59
2019-01-28T10:20:33.554Z,96529.08
2019-01-28T10:23:01.966Z,96534.34
2019-01-28T10:25:30.406Z,96533.55
2019-01-28T10:27:58.843Z,96538.45
2019-01-28T10:30:41.890Z,96540.60
2019-01-28T10:33:11.573Z,96541.59
2019-01-28T10:35:40.898Z,96545.03
2019-01-28T10:38:09.736Z,96550.45
2019-01-28T10:40:40.784Z,96556.87
2019-01-28T10:43:09.592Z,96553.92
2019-01-28T10:45:42.113Z,96560.34
2019-01-28T10:48:10.935Z,96562.14
2019-01-28T10:50:40.153Z,96564.94
2019-01-28T10:53:08.601Z,96567.57
2019-01-28T10:55:37.049Z,96573.52
2019-01-28T10:58:05.755Z,96570.05
2019-01-28T11:00:36.992Z,96579.27
2019-01-28T11:03:06.798Z,96579.42
2019-01-28T11:05:36.382Z,96572.36
2019-01-28T11:08:05.581Z,96581.57
2019-01-28T11:10:34.050Z,96576.78
2019-01-28T11:13:02.528Z,96581.09
2019-01-28T11:15:31.518Z,96588.15
2019-01-28T11:18:05.394Z,96591.27
2019-01-28T11:20:33.974Z,96595.22
2019-01-28T11:23:02.436Z,96593.42
2019-01-28T11:25:33.574Z,96607.89
2019-01-28T11:28:01.955Z,96611.84
2019-01-28T11:30:44.465Z,96613.64
2019-01-28T11:33:13.041Z,96619.75
2019-01-28T11:35:42.099Z,96621.22
2019-01-28T11:38:10.905Z,96628.60
2019-01-28T11:40:40.671Z,96631.23
2019-01-28T11:43:09.293Z,96636.50
2019-01-28T11:45:41.473Z,96639.65
2019-01-28T11:48:10.037Z,96647.03
2019-01-28T11:50:41.386Z,96655.29
2019-01-28T11:53:09.758Z,96657.92
2019-01-28T11:55:38.139Z,96663.83
2019-01-28T11:58:06.846Z,96663.83
2019-01-28T12:00:48.354Z,96664.50
2019-01-28T12:03:16.723Z,96672.05
2019-01-28T12:05:51.118Z,96684.73
2019-01-28T12:08:20.675Z,96684.41
2019-01-28T12:10:49.137Z,96688.36
2019-01-28T12:13:17.501Z,96694.58
2019-01-28T12:15:45.945Z,96699.36
2019-01-28T12:18:15.292Z,96705.11
2019-01-28T12:20:44.733Z,96711.53
2019-01-28T12:23:13.903Z,96717.64
2019-01-28T12:25:42.345Z,96724.22
2019-01-28T12:28:10.986Z,96730.48
2019-01-28T12:30:39.787Z,96730.96
2019-01-28T12:33:08.186Z,96733.59
2019-01-28T12:35:36.554Z,96743.64
2019-01-28T12:38:05.268Z,96742.80
2019-01-28T12:40:34.411Z,96752.02
2019-01-28T12:43:02.790Z,96762.70
2019-01-28T12:45:31.164Z,96764.02
2019-01-28T12:47:59.552Z,96765.81
2019-01-28T12:50:28.358Z,96770.60
2019-01-28T12:52:56.734Z,96766.33
2019-01-28T12:55:28.368Z,96773.39
2019-01-28T12:57:56.768Z,96776.50
2019-01-28T13:00:36.122Z,96788.20
2019-01-28T13:03:05.830Z,96788.70
2019-01-28T13:05:34.674Z,96796.24
2019-01-28T13:08:03.067Z,96807.61
2019-01-28T13:10:31.507Z,96812.88
2019-01-28T13:12:59.893Z,96819.94
2019-01-28T13:15:33.111Z,96823.89
2019-01-28T13:18:01.478Z,96826.20
2019-01-28T13:20:30.285Z,96831.61
2019-01-28T13:22:58.802Z,96841.98
2019-01-28T13:25:32.479Z,96841.98
2019-01-28T13:28:00.847Z,96845.58
2019-01-28T13:30:35.393Z,96847.41
2019-01-28T13:33:07.022Z,96851.36
2019-01-28T13:35:35.395Z,96845.58
2019-01-28T13:38:03.843Z,96864.52
2019-01-28T13:40:33.145Z,96869.78
2019-01-28T13:43:02.398Z,96869.78
2019-01-28T13:45:30.783Z,96883.75
2019-01-28T13:47:59.504Z,96879.80
2019-01-28T13:50:28.039Z,96890.34
2019-01-28T13:52:56.703Z,96892.64
2019-01-28T13:55:25.166Z,96899.22
2019-01-28T13:57:53.545Z,96906.28
2019-01-28T14:00:30.720Z,96906.49
2019-01-28T14:02:59.665Z,96916.19
2019-01-28T14:05:28.336Z,96925.55
2019-01-28T14:07:57.346Z,96932.97
2019-01-28T14:10:28.111Z,96945.63
2019-01-28T14:12:56.718Z,96945.63
2019-01-28T14:15:36.032Z,96954.84
2019-01-28T14:18:06.732Z,96964.41
2019-01-28T14:20:37.334Z,96968.52
2019-01-28T14:23:06.146Z,96979.05
2019-01-28T14:25:35.410Z,96988.73
2019-01-28T14:28:05.759Z,96998.42
2019-01-28T14:30:44.974Z,97000.58
2019-01-28T14:33:13.392Z,97009.80
2019-01-28T14:35:42.107Z,97017.70
2019-01-28T14:38:11.324Z,97025.27
2019-01-28T14:40:40.924Z,97026.58
2019-01-28T14:43:09.769Z,97039.23
2019-01-28T14:45:38.152Z,97041.39
2019-01-28T14:48:07.875Z,97041.39
2019-01-28T14:50:37.872Z,97051.08
2019-01-28T14:53:06.329Z,97055.39
2019-01-28T14:55:35.839Z,97064.09
2019-01-28T14:58:05.557Z,97069.88
2019-01-28T15:00:38.917Z,97069.88
2019-01-28T15:03:07.407Z,97086.48
2019-01-28T15:05:36.802Z,97079.89
2019-01-28T15:08:06.472Z,97082.67
2019-01-28T15:10:35.761Z,97088.78
2019-01-28T15:13:04.999Z,97086.62
2019-01-28T15:15:38.320Z,97093.35
2019-01-28T15:18:08.041Z,97104.58
2019-01-28T15:20:36.406Z,97117.41
2019-01-28T15:23:05.789Z,97123.98
2019-01-28T15:25:34.162Z,97128.42
2019-01-28T15:28:02.712Z,97128.42
2019-01-28T15:30:32.015Z,97148.49
2019-01-28T15:33:00.604Z,97146.98
2019-01-28T15:35:28.988Z,97157.01
2019-01-28T15:37:57.373Z,97162.64
2019-01-28T15:40:32.240Z,97173.17
2019-01-28T15:43:00.705Z,97174.97
2019-01-28T15:45:31.615Z,97178.58
2019-01-28T15:47:59.993Z,97187.43
2019-01-28T15:50:28.367Z,97187.94
2019-01-28T15:52:56.743Z,97198.47
2019-01-28T15:55:33.616Z,97198.91
2019-01-28T15:58:02.162Z,97205.38
2019-01-28T16:00:33.132Z,97212.44
2019-01-28T16:03:02.277Z,97216.50
2019-01-28T16:05:30.643Z,97212.95
2019-01-28T16:07:59.013Z,97225.13
2019-01-28T16:10:28.363Z,97231.70
2019-01-28T16:12:56.803Z,97233.50
2019-01-28T16:15:33.913Z,97239.14
2019-01-28T16:18:02.434Z,97230.06
2019-01-28T16:20:30.804Z,97237.95
2019-01-28T16:22:59.331Z,97244.03
2019-01-28T16:25:27.714Z,97247.17
2019-01-28T16:27:56.084Z,97248.09
2019-01-28T16:30:26.916Z,97247.28
2019-01-28T16:32:55.453Z,97259.13
2019-01-28T16:35:24.002Z,97267.02
2019-01-28T16:37:54.104Z,97270.61
2019-01-28T16:40:27.847Z,97271.78
2019-01-28T16:42:57.364Z,97276.24
2019-01-28T16:45:26.921Z,97279.20
2019-01-28T16:47:56.271Z,97285.79
2019-01-28T16:50:32.688Z,97294.56
2019-01-28T16:53:01.082Z,97301.59
2019-01-28T16:55:29.457Z,97306.41
2019-01-28T16:57:58.865Z,97315.12
2019-01-28T17:00:29.492Z,97323.02
2019-01-28T17:02:57.859Z,97330.11
2019-01-28T17:05:26.759Z,97344.92
2019-01-28T17:07:55.186Z,97354.47
2019-01-28T17:10:24.031Z,97361.56
2019-01-28T17:12:52.401Z,97362.88
2019-01-28T17:15:24.555Z,97362.03
2019-01-28T17:17:52.989Z,97369.94
2019-01-28T17:20:35.135Z,97370.41
2019-01-28T17:22:59.949Z,97373.75
2019-01-28T17:25:34.179Z,97380.80
2019-01-28T17:28:02.621Z,97381.31
2019-01-28T17:30:35.979Z,97376.05
2019-01-28T17:33:05.690Z,97385.26
2019-01-28T17:35:34.124Z,97395.28
2019-01-28T17:38:02.486Z,97404.03
2019-01-28T17:40:32.412Z,97410.75
2019-01-28T17:43:00.781Z,97413.85
2019-01-28T17:45:29.401Z,97427.38
2019-01-28T17:47:58.238Z,97434.91
2019-01-28T17:50:27.282Z,97436.60
2019-01-28T17:52:55.721Z,97435.76
2019-01-28T17:55:24.101Z,97452.73
2019-01-28T17:57:52.475Z,97454.66
2019-01-28T18:00:30.132Z,97461.24
2019-01-28T18:03:00.457Z,97458.61
2019-01-28T18:05:30.801Z,97469.52
2019-01-28T18:07:59.183Z,97474.41
2019-01-28T18:10:30.616Z,97479.30
2019-01-28T18:12:58.992Z,97475.83
2019-01-28T18:15:28.318Z,97487.34
2019-01-28T18:17:56.694Z,97486.86
2019-01-28T18:20:25.154Z,97494.86
2019-01-28T18:22:53.588Z,97496.18
2019-01-28T18:25:34.440Z,97494.53
2019-01-28T18:28:03.092Z,97499.79
2019-01-28T18:30:44.214Z,97506.38
2019-01-28T18:33:12.582Z,97506.84
2019-01-28T18:35:40.974Z,97509.14
2019-01-28T18:38:09.784Z,97513.56
2019-01-28T18:40:38.163Z,97520.98
2019-01-28T18:43:07.929Z,97521.83
2019-01-28T18:45:36.649Z,97528.88
2019-01-28T18:48:06.475Z,97535.80
2019-01-28T18:50:38.260Z,97535.94
2019-01-28T18:53:07.581Z,97537.63
2019-01-28T18:55:35.912Z,97536.41
2019-01-28T18:58:04.817Z,97544.81
2019-01-28T19:00:34.539Z,97545.75
2019-01-28T19:03:02.976Z,97551.87
2019-01-28T19:05:49.149Z,97557.60
2019-01-28T19:08:30.858Z,97560.23
2019-01-28T19:11:09.538Z,97565.63
2019-01-28T19:13:57.323Z,97566.14
2019-01-28T19:16:30.099Z,97578.45
2019-01-28T19:19:02.552Z,97573.80
2019-01-28T19:21:47.489Z,97581.69
2019-01-28T19:24:15.854Z,97580.72
2019-01-28T19:26:44.250Z,97589.93
2019-01-28T19:29:12.628Z,97595.83
2019-01-28T19:31:41.011Z,97596.17
2019-01-28T19:34:09.399Z,97600.13
2019-01-28T19:36:37.921Z,97607.05
2019-01-28T19:39:08.623Z,97614.94
2019-01-28T19:41:38.049Z,97620.11
2019-01-28T19:44:06.511Z,97619.27
2019-01-28T19:46:34.912Z,97618.41
2019-01-28T19:49:03.283Z,97630.63
2019-01-28T19:51:31.657Z,97631.45
2019-01-28T19:54:00.033Z,97631.95
2019-01-28T19:56:28.419Z,97637.31
2019-01-28T19:58:57.759Z,97637.82
2019-01-28T20:01:26.152Z,97636.38
2019-01-28T20:03:54.516Z,97638.63
2019-01-28T20:06:22.903Z,97643.30
2019-01-28T20:08:51.275Z,97641.98
2019-01-28T20:11:19.653Z,97649.06
2019-01-28T20:13:48.067Z,97655.98
2019-01-28T20:16:16.448Z,97661.72
2019-01-28T20:18:44.817Z,97670.13
2019-01-28T20:21:13.216Z,97671.78
2019-01-28T20:23:41.595Z,97677.52
2019-01-28T20:26:09.954Z,97677.18
2019-01-28T20:28:38.355Z,97686.86
2019-01-28T20:31:06.969Z,97685.20
2019-01-28T20:33:35.342Z,97698.71
2019-01-28T20:36:03.891Z,97698.71
2019-01-28T20:38:32.265Z,97697.39
2019-01-28T20:41:00.652Z,97707.45
2019-01-28T20:43:29.025Z,97709.97
2019-01-28T20:45:57.426Z,97714.88
2019-01-28T20:48:25.783Z,97722.78
2019-01-28T20:50:54.158Z,97717.14
2019-01-28T20:53:22.532Z,97718.83
2019-01-28T20:55:50.962Z,97721.46
2019-01-28T20:58:19.387Z,97727.54
2019-01-28T21:00:47.775Z,97731.62
2019-01-28T21:03:16.447Z,97736.41
2019-01-28T21:05:44.816Z,97739.98
2019-01-28T21:08:13.168Z,97748.86
2019-01-28T21:10:41.592Z,97746.09
2019-01-28T21:13:10.261Z,97748.26
2019-01-28T21:15:44.668Z,97749.20
2019-01-28T21:18:13.183Z,97750.52
2019-01-28T21:20:41.544Z,97758.32
2019-01-28T21:23:09.919Z,97757.94
2019-01-28T21:25:38.893Z,97761.05
2019-01-28T21:28:07.282Z,97763.34
2019-01-28T21:30:36.001Z,97772.08
2019-01-28T21:33:04.570Z,97775.91
2019-01-28T21:35:37.383Z,97770.17
2019-01-28T21:38:07.404Z,97775.05
2019-01-28T21:40:35.764Z,97774.21
2019-01-28T21:43:04.578Z,97773.27
2019-01-28T21:45:32.942Z,97782.36
2019-01-28T21:48:01.317Z,97780.32
2019-01-28T21:50:29.699Z,97780.32
2019-01-28T21:52:58.097Z,97787.28
2019-01-28T21:55:26.468Z,97787.28
2019-01-28T21:57:54.858Z,97789.91
2019-01-28T22:00:23.304Z,97791.23
2019-01-28T22:02:51.715Z,97793.73
2019-01-28T22:05:20.052Z,97794.20
2019-01-28T22:07:48.435Z,97794.08
2019-01-28T22:10:16.940Z,97794.08
2019-01-28T22:12:45.326Z,97798.75
2019-01-28T22:15:18.464Z,97796.46
2019-01-28T22:17:46.833Z,97802.32
2019-01-28T22:20:15.877Z,97798.37
2019-01-28T22:22:44.430Z,97809.28
2019-01-28T22:25:17.021Z,97814.55
2019-01-28T22:27:45.383Z,97823.77
2019-01-28T22:30:19.338Z,97818.50
2019-01-28T22:32:47.894Z,97821.47
2019-01-28T22:35:16.258Z,97820.66
2019-01-28T22:37:44.632Z,97821.13
2019-01-28T22:40:15.046Z,97821.98
2019-01-28T22:42:43.433Z,97818.38
2019-01-28T22:45:14.783Z,97828.91
2019-01-28T22:47:43.164Z,97829.75
2019-01-28T22:50:16.866Z,97829.25
2019-01-28T22:52:45.625Z,97824.83
2019-01-28T22:55:16.434Z,97821.85
2019-01-28T22:57:44.817Z,97830.94
2019-01-28T23:00:20.414Z,97838.84
2019-01-28T23:02:48.866Z,97837.99
2019-01-28T23:05:17.159Z,97837.05
2019-01-28T23:07:45.549Z,97838.84
2019-01-28T23:10:13.928Z,97845.42
2019-01-28T23:12:42.341Z,97849.38
2019-01-28T23:15:11.463Z,97848.30
2019-01-28T23:17:39.843Z,97852.84
2019-01-28T23:20:09.359Z,97857.14
2019-01-28T23:22:37.741Z,97855.39
2019-01-28T23:25:06.852Z,97863.29
2019-01-28T23:27:35.232Z,97861.00
2019-01-28T23:30:04.911Z,97870.69
2019-01-28T23:32:33.291Z,97868.91
2019-01-28T23:35:01.658Z,97871.06
2019-01-28T23:37:30.034Z,97864.83
2019-01-28T23:39:58.402Z,97873.70
2019-01-28T23:42:26.778Z,97882.32
2019-01-28T23:44:55.157Z,97886.27
2019-01-28T23:47:23.624Z,97879.91
2019-01-28T23:49:52.042Z,97879.91
2019-01-28T23:52:25.077Z,97890.69
2019-01-28T23:54:50.533Z,97894.64
2019-01-28T23:57:18.922Z,97895.48
2019-01-28T23:59:47.293Z,97891.28
